Time;durP1;ratioP1;P1;durP2;ratioP2;P2;SDS_P1;SDS_P2;PMS_P1;PMS_P2;Temp;Humidity;BMP_temperature;BMP_pressure;BME280_temperature;BME280_humidity;BME280_pressure;Samples;Min_cycle;Max_cycle;Signal;HPM_P1;HPM_P2
2023/06/14 00:01:45;;;;;;;11.35;4.18;;;;;;;;;;4899290;29;20040;-79
2023/06/14 00:04:12;;;;;;;7.45;4.63;;;;;;;;;;4901419;29;20035;-82
2023/06/14 00:06:38;;;;;;;6.57;4.20;;;;;;;;;;4886148;29;20112;-81
2023/06/14 00:09:04;;;;;;;10.80;4.70;;;;;;;;;;4882836;29;20454;-82
2023/06/14 00:11:31;;;;;;;7.43;4.25;;;460.90;2380.80;;;;;;4882714;29;20033;-80
2023/06/14 00:13:57;;;;;;;11.98;4.90;;;436.10;2355.20;;;;;;4882429;29;20037;-80
2023/06/14 00:16:24;;;;;;;8.68;3.88;;;436.10;2355.20;;;;;;4882606;29;20056;-77
2023/06/14 00:18:51;;;;;;;8.73;4.18;;;436.10;2355.20;;;;;;4882461;29;20108;-81
2023/06/14 00:21:19;;;;;;;10.20;4.53;;;436.10;2355.20;;;;;;4882716;29;20060;-82
2023/06/14 00:23:45;;;;;;;6.78;4.25;;;436.00;2355.20;;;;;;4882357;29;20477;-83
2023/06/14 00:26:11;;;;;;;9.10;4.63;;;435.80;2355.20;;;;;;4882636;29;20035;-71
2023/06/14 00:28:37;;;;;;;10.05;4.70;;;435.90;2355.20;;;;;;4882383;29;20119;-81
2023/06/14 00:31:02;;;;;;;7.65;4.47;;;435.80;2355.20;;;;;;4882451;29;20024;-82
2023/06/14 00:33:28;;;;;;;6.68;4.60;;;435.80;2355.20;;;;;;4882175;29;20029;-71
2023/06/14 00:35:54;;;;;;;8.50;4.40;;;435.70;2355.20;;;;;;4882257;29;20041;-81
2023/06/14 00:38:21;;;;;;;9.50;4.93;;;435.80;2355.20;;;;;;4882555;29;20030;-82
2023/06/14 00:40:46;;;;;;;7.28;4.32;;;435.80;2355.20;;;;;;4882337;29;20056;-81
2023/06/14 00:43:12;;;;;;;9.75;5.05;;;435.80;2355.20;;;;;;4882229;29;20391;-82
2023/06/14 00:45:38;;;;;;;8.45;4.70;;;435.70;2355.20;;;;;;4882003;29;20468;-82
2023/06/14 00:48:07;;;;;;;12.50;5.35;;;435.80;2355.20;;;;;;4882045;29;20085;-78
2023/06/14 00:50:33;;;;;;;10.18;5.90;;;435.60;2355.20;;;;;;4881834;29;20033;-83
2023/06/14 00:53:01;;;;;;;7.93;4.40;;;435.60;2355.20;;;;;;4882177;29;20061;-82
2023/06/14 00:55:27;;;;;;;8.10;5.07;;;435.60;2355.20;;;;;;4881824;29;20037;-81
2023/06/14 00:57:54;;;;;;;11.07;5.47;;;435.60;2355.20;;;;;;4881857;29;20021;-80
2023/06/14 01:00:20;;;;;;;8.13;5.15;;;435.60;2355.20;;;;;;4880771;29;20029;-82
2023/06/14 01:02:46;;;;;;;8.43;5.03;;;435.50;2355.20;;;;;;4881644;29;20025;-80
2023/06/14 01:05:13;;;;;;;12.93;6.03;;;435.50;2355.20;;;;;;4881930;29;20519;-82
2023/06/14 01:07:51;;;;;;;8.85;5.40;;;435.40;2355.20;;;;;;4881798;29;20025;-81
2023/06/14 01:10:23;;;;;;;7.50;5.45;;;435.60;2355.20;;;;;;4881569;29;20072;-78
2023/06/14 01:12:58;;;;;;;9.80;4.93;;;435.60;2355.20;;;;;;4882911;29;20025;-79
2023/06/14 01:15:24;;;;;;;10.23;5.68;;;435.50;2355.20;;;;;;4899399;29;20123;-80
2023/06/14 01:17:53;;;;;;;8.52;5.47;;;435.50;2355.20;;;;;;4899918;29;20036;-81
2023/06/14 01:20:21;;;;;;;8.05;5.28;;;435.60;2355.20;;;;;;4899896;29;20043;-79
2023/06/14 01:22:53;;;;;;;9.32;6.20;;;435.60;2355.20;;;;;;4900113;29;20020;-79
2023/06/14 01:25:23;;;;;;;12.82;5.82;;;435.50;2355.20;;;;;;4899957;29;20503;-75
2023/06/14 01:27:51;;;;;;;9.43;5.38;;;435.50;2355.20;;;;;;4899590;29;20049;-78
2023/06/14 01:30:18;;;;;;;11.25;5.32;;;435.50;2355.20;;;;;;4899734;29;20092;-79
2023/06/14 01:32:44;;;;;;;11.02;6.28;;;435.50;2355.20;;;;;;4899734;29;20032;-81
2023/06/14 01:35:10;;;;;;;17.08;6.28;;;435.60;2355.20;;;;;;4899714;29;20392;-81
2023/06/14 01:37:37;;;;;;;9.10;5.57;;;435.60;2355.20;;;;;;4882733;29;20024;-79
2023/06/14 01:40:06;;;;;;;9.30;4.43;;;435.50;2355.20;;;;;;4899620;29;20028;-80
2023/06/14 01:42:35;;;;;;;12.43;5.43;;;435.50;2355.20;;;;;;4899360;29;20068;-78
2023/06/14 01:45:03;;;;;;;10.43;5.85;;;435.40;2355.20;;;;;;4899266;29;20024;-77
2023/06/14 01:47:30;;;;;;;12.93;6.60;;;435.30;2355.20;;;;;;4899507;29;20607;-78
2023/06/14 01:49:55;;;;;;;12.77;6.25;;;435.30;2355.20;;;;;;4899276;29;20035;-76
2023/06/14 01:52:22;;;;;;;9.82;5.45;;;435.30;2355.20;;;;;;4899376;29;20025;-80
2023/06/14 01:54:49;;;;;;;11.50;5.28;;;435.30;2355.20;;;;;;4899248;29;20032;-79
2023/06/14 01:57:15;;;;;;;9.75;4.97;;;435.30;2355.20;;;;;;4899436;29;20029;-79
2023/06/14 01:59:41;;;;;;;9.88;5.35;;;410.50;2355.20;;;;;;4898909;29;20475;-81
2023/06/14 02:02:07;;;;;;;10.05;5.75;;;410.50;2355.20;;;;;;4899108;29;20032;-79
2023/06/14 02:04:33;;;;;;;14.10;5.65;;;410.50;2355.20;;;;;;4899040;29;20055;-78
2023/06/14 02:06:59;;;;;;;8.75;4.90;;;435.20;2355.20;;;;;;4899246;29;20399;-80
2023/06/14 02:09:25;;;;;;;12.82;5.68;;;435.30;2355.20;;;;;;4899190;29;20056;-76
2023/06/14 02:11:51;;;;;;;8.77;5.25;;;435.20;2355.20;;;;;;4889615;29;20398;-80
2023/06/14 02:14:17;;;;;;;10.50;5.45;;;435.20;2355.20;;;;;;4904131;29;20028;-80
2023/06/14 02:16:48;;;;;;;11.40;5.38;;;435.20;2355.20;;;;;;4898789;29;20063;-79
2023/06/14 02:19:19;;;;;;;11.25;5.68;;;410.50;2355.20;;;;;;4898700;29;20390;-80
2023/06/14 02:21:45;;;;;;;10.50;5.60;;;410.50;2355.20;;;;;;4898807;29;20028;-76
2023/06/14 02:24:11;;;;;;;12.43;5.78;;;410.50;2355.20;;;;;;4898953;29;20039;-75
2023/06/14 02:26:41;;;;;;;7.78;5.65;;;410.40;2355.20;;;;;;4898732;29;20103;-76
2023/06/14 02:29:10;;;;;;;9.98;5.65;;;410.40;2355.20;;;;;;4898596;29;20483;-79
2023/06/14 02:31:36;;;;;;;8.23;5.03;;;410.50;2355.20;;;;;;4898535;29;20012;-79
2023/06/14 02:34:02;;;;;;;13.88;5.65;;;410.40;2355.20;;;;;;4898717;29;20044;-75
2023/06/14 02:36:31;;;;;;;10.45;5.82;;;410.40;2355.20;;;;;;4898416;29;20029;-81
2023/06/14 02:38:57;;;;;;;12.30;5.72;;;410.50;2355.20;;;;;;4898601;29;20379;-80
2023/06/14 02:41:26;;;;;;;10.63;5.35;;;410.50;2355.20;;;;;;4898559;29;20055;-75
2023/06/14 02:43:52;;;;;;;13.93;5.78;;;410.50;2355.20;;;;;;4898202;29;20105;-80
2023/06/14 02:46:18;;;;;;;10.70;5.60;;;410.30;2355.20;;;;;;4898349;29;20069;-81
2023/06/14 02:48:44;;;;;;;16.30;6.70;;;410.30;2355.20;;;;;;4898380;29;20056;-79
2023/06/14 02:51:09;;;;;;;11.15;5.43;;;410.30;2355.20;;;;;;4898515;29;20099;-76
2023/06/14 02:53:36;;;;;;;15.57;6.20;;;410.50;2355.20;;;;;;4910789;29;20024;-73
2023/06/14 02:56:03;;;;;;;12.15;5.75;;;410.40;2355.20;;;;;;4898361;29;20479;-80
2023/06/14 02:58:29;;;;;;;9.73;5.55;;;410.30;2355.20;;;;;;4898197;29;20059;-76
2023/06/14 03:00:56;;;;;;;11.77;5.32;;;410.30;2355.20;;;;;;4898408;29;20084;-80
2023/06/14 03:03:24;;;;;;;11.32;5.55;;;410.30;2355.20;;;;;;4898597;29;20031;-80
2023/06/14 03:05:51;;;;;;;8.18;4.75;;;410.40;2355.20;;;;;;4897892;29;20044;-80
2023/06/14 03:08:19;;;;;;;13.68;5.72;;;410.40;2355.20;;;;;;4897964;29;20064;-80
2023/06/14 03:10:47;;;;;;;12.82;5.95;;;410.40;2355.20;;;;;;4898372;29;20016;-81
2023/06/14 03:13:15;;;;;;;11.70;5.63;;;410.40;2355.20;;;;;;4886039;29;20489;-80
2023/06/14 03:15:42;;;;;;;9.75;5.13;;;410.50;2355.20;;;;;;4905422;29;20053;-80
2023/06/14 03:18:09;;;;;;;11.88;6.13;;;410.40;2355.20;;;;;;4898122;29;20449;-75
2023/06/14 03:20:35;;;;;;;10.32;5.57;;;410.40;2355.20;;;;;;4898018;29;20095;-81
2023/06/14 03:23:03;;;;;;;12.15;5.70;;;410.50;2355.20;;;;;;4899310;29;20021;-76
2023/06/14 03:25:29;;;;;;;11.88;5.57;;;435.20;2355.20;;;;;;4913645;29;20028;-80
2023/06/14 03:27:58;;;;;;;12.13;5.07;;;435.20;2355.20;;;;;;4902613;29;20168;-79
2023/06/14 03:30:23;;;;;;;14.93;5.57;;;435.30;2355.20;;;;;;4902133;29;20058;-80
2023/06/14 03:32:51;;;;;;;21.17;6.45;;;435.30;2355.20;;;;;;4907509;29;20060;-78
2023/06/14 03:35:17;;;;;;;12.40;5.53;;;435.30;2355.20;;;;;;4908408;29;20036;-76
2023/06/14 03:37:47;;;;;;;11.68;5.90;;;435.30;2355.20;;;;;;4907704;29;20406;-79
2023/06/14 03:40:16;;;;;;;9.27;5.22;;;435.30;2355.20;;;;;;4907436;29;20028;-76
2023/06/14 03:42:41;;;;;;;12.43;5.78;;;435.40;2355.20;;;;;;4901497;29;20059;-80
2023/06/14 03:45:07;;;;;;;12.38;5.80;;;435.30;2355.20;;;;;;4901634;29;20534;-77
2023/06/14 03:47:34;;;;;;;14.75;5.45;;;435.50;2355.20;;;;;;4901610;29;20060;-80
2023/06/14 03:50:00;;;;;;;8.55;5.53;;;435.30;2355.20;;;;;;4901339;29;20047;-80
2023/06/14 03:52:27;;;;;;;13.15;5.28;;;435.40;2355.20;;;;;;4901507;29;20501;-80
2023/06/14 03:54:53;;;;;;;9.77;5.68;;;435.30;2355.20;;;;;;4901167;29;20435;-80
2023/06/14 03:57:20;;;;;;;12.48;5.35;;;435.30;2355.20;;;;;;4901321;29;20029;-81
2023/06/14 03:59:46;;;;;;;8.50;5.25;;;435.30;2355.20;;;;;;4901143;29;20080;-80
2023/06/14 04:02:15;;;;;;;10.88;5.57;;;435.40;2355.20;;;;;;4901355;29;20562;-80
2023/06/14 04:04:43;;;;;;;13.68;5.90;;;435.60;2355.20;;;;;;4901204;29;20158;-81
2023/06/14 04:07:11;;;;;;;13.77;5.90;;;435.50;2355.20;;;;;;4900862;29;20032;-75
2023/06/14 04:09:37;;;;;;;11.98;5.90;;;435.50;2355.20;;;;;;4901228;29;20029;-80
2023/06/14 04:12:04;;;;;;;8.98;5.38;;;435.40;2355.20;;;;;;4900992;29;20036;-72
2023/06/14 04:14:30;;;;;;;13.88;6.03;;;435.40;2355.20;;;;;;4912969;29;20056;-80
2023/06/14 04:16:56;;;;;;;11.15;5.93;;;435.30;2355.20;;;;;;4901311;29;20029;-77
2023/06/14 04:19:22;;;;;;;12.27;5.72;;;435.50;2355.20;;;;;;4900874;29;20040;-74
2023/06/14 04:21:47;;;;;;;8.70;5.97;;;435.60;2355.20;;;;;;4900619;29;20020;-72
2023/06/14 04:24:13;;;;;;;13.00;5.97;;;435.60;2355.20;;;;;;4900978;29;20037;-71
2023/06/14 04:26:47;;;;;;;14.80;6.30;;;435.70;2355.20;;;;;;4900392;29;20036;-79
2023/06/14 04:29:15;;;;;;;11.48;6.07;;;435.80;2355.20;;;;;;4900677;29;20021;-80
2023/06/14 04:31:42;;;;;;;8.10;5.22;;;435.70;2355.20;;;;;;4900494;29;20088;-79
2023/06/14 04:34:08;;;;;;;7.97;5.45;;;435.80;2355.20;;;;;;4900475;29;20072;-79
2023/06/14 04:36:37;;;;;;;9.40;5.47;;;435.80;2355.20;;;;;;4891912;29;20029;-74
2023/06/14 04:39:03;;;;;;;12.52;6.05;;;435.80;2355.20;;;;;;4890481;29;20429;-82
2023/06/14 04:41:32;;;;;;;12.60;6.70;;;436.00;2355.20;;;;;;4873842;29;20124;-70
2023/06/14 04:44:01;;;;;;;15.07;5.82;;;436.10;2355.20;;;;;;4890806;29;20028;-74
2023/06/14 04:46:28;;;;;;;13.68;6.07;;;460.80;2380.80;;;;;;4887928;29;20548;-77
2023/06/14 04:48:54;;;;;;;10.93;5.70;;;460.80;2380.80;;;;;;4888046;29;20037;-75
2023/06/14 04:51:22;;;;;;;9.60;5.88;;;460.90;2380.80;;;;;;4892267;29;20055;-74
2023/06/14 04:53:49;;;;;;;12.52;6.25;;;460.90;2380.80;;;;;;4878562;29;20372;-76
2023/06/14 04:56:16;;;;;;;12.05;6.00;;;460.90;2380.80;;;;;;4893088;29;20037;-73
2023/06/14 04:58:43;;;;;;;11.30;5.70;;;461.00;2380.80;;;;;;4890850;29;20016;-73
2023/06/14 05:01:09;;;;;;;18.60;6.22;;;461.10;2380.80;;;;;;4894522;29;20041;-72
2023/06/14 05:03:35;;;;;;;13.50;6.38;;;461.10;2380.80;;;;;;4886648;29;20027;-72
2023/06/14 05:06:00;;;;;;;8.65;5.00;;;461.10;2380.80;;;;;;4888964;29;20694;-72
2023/06/14 05:08:26;;;;;;;10.88;5.35;;;461.30;2380.80;;;;;;4887898;29;20017;-73
2023/06/14 05:10:52;;;;;;;10.27;5.30;;;461.30;2380.80;;;;;;4888195;29;20028;-72
2023/06/14 05:13:18;;;;;;;8.50;5.55;;;461.30;2380.80;;;;;;4887308;29;20124;-76
2023/06/14 05:15:44;;;;;;;8.27;5.28;;;461.40;2380.80;;;;;;4884038;29;20571;-73
2023/06/14 05:18:10;;;;;;;7.60;4.68;;;461.40;2380.80;;;;;;4891614;29;20032;-74
2023/06/14 05:20:37;;;;;;;10.50;5.50;;;461.40;2380.80;;;;;;4884216;29;20391;-72
2023/06/14 05:23:03;;;;;;;12.93;5.25;;;461.50;2380.80;;;;;;4886567;29;20387;-72
2023/06/14 05:25:29;;;;;;;10.20;5.90;;;461.60;2380.80;;;;;;4882231;29;20025;-74
2023/06/14 05:27:54;;;;;;;9.95;5.70;;;461.70;2380.80;;;;;;4891231;29;20017;-74
2023/06/14 05:30:20;;;;;;;10.00;5.68;;;486.40;2380.80;;;;;;4884221;29;20036;-72
2023/06/14 05:32:46;;;;;;;10.43;6.68;;;486.40;2380.80;;;;;;4885910;29;20032;-72
2023/06/14 05:35:11;;;;;;;9.65;5.20;;;486.40;2380.80;;;;;;4893309;29;20056;-73
2023/06/14 05:37:37;;;;;;;10.43;6.25;;;486.60;2380.80;;;;;;4892609;29;20025;-74
2023/06/14 05:40:07;;;;;;;10.75;5.70;;;486.60;2380.80;;;;;;4885886;29;20550;-71
2023/06/14 05:42:33;;;;;;;15.90;5.88;;;486.80;2380.80;;;;;;4889806;29;20100;-73
2023/06/14 05:44:59;;;;;;;10.30;5.90;;;486.90;2380.80;;;;;;4889421;29;20507;-71
2023/06/14 05:47:25;;;;;;;10.48;5.30;;;486.90;2380.80;;;;;;4888903;29;20506;-72
2023/06/14 05:49:51;;;;;;;12.20;5.03;;;487.00;2380.80;;;;;;4891780;29;20037;-72
2023/06/14 05:52:17;;;;;;;9.43;4.95;;;487.10;2380.80;;;;;;4893618;29;20033;-71
2023/06/14 05:54:42;;;;;;;9.82;5.53;;;487.20;2380.80;;;;;;4889252;29;20112;-72
2023/06/14 05:57:08;;;;;;;10.77;5.35;;;487.30;2380.80;;;;;;4892062;29;20076;-72
2023/06/14 05:59:34;;;;;;;8.23;4.38;;;487.30;2380.80;;;;;;4899090;29;20020;-72
2023/06/14 06:01:59;;;;;;;8.13;4.47;;;512.20;2380.80;;;;;;4887274;29;20040;-74
2023/06/14 06:04:25;;;;;;;24.30;5.88;;;512.20;2380.80;;;;;;4884855;29;20029;-73
2023/06/14 06:06:51;;;;;;;10.10;4.55;;;512.40;2380.80;;;;;;4886145;29;20116;-73
2023/06/14 06:09:17;;;;;;;6.20;4.13;;;512.60;2380.80;;;;;;4894206;29;20025;-72
2023/06/14 06:11:42;;;;;;;6.63;4.68;;;512.80;2380.80;;;;;;4884680;29;20017;-72
2023/06/14 06:14:08;;;;;;;7.00;4.43;;;512.90;2380.80;;;;;;4881287;29;20025;-71
2023/06/14 06:16:33;;;;;;;7.82;3.75;;;512.90;2380.80;;;;;;4888405;29;20076;-77
2023/06/14 06:19:00;;;;;;;7.80;4.07;;;537.60;2406.40;;;;;;4889847;29;20060;-72
2023/06/14 06:21:26;;;;;;;7.05;3.72;;;537.70;2406.40;;;;;;4888550;29;20394;-72
2023/06/14 06:23:51;;;;;;;7.22;3.47;;;537.90;2406.40;;;;;;4886131;29;20031;-72
2023/06/14 06:26:17;;;;;;;11.82;3.85;;;538.00;2406.40;;;;;;4886008;29;20029;-74
2023/06/14 06:28:43;;;;;;;5.70;3.55;;;538.10;2406.40;;;;;;4883865;29;20036;-72
2023/06/14 06:31:09;;;;;;;5.53;3.40;;;538.20;2406.40;;;;;;4885011;29;20017;-72
2023/06/14 06:33:35;;;;;;;8.00;3.30;;;538.30;2406.40;;;;;;4888373;29;20029;-75
2023/06/14 06:36:01;;;;;;;6.07;3.53;;;538.40;2406.40;;;;;;4881802;29;20040;-75
2023/06/14 06:38:26;;;;;;;5.32;3.13;;;538.40;2406.40;;;;;;4882694;29;20460;-72
2023/06/14 06:40:54;;;;;;;7.32;3.20;;;;;;;;;;4866436;29;20481;-74
2023/06/14 06:43:20;;;;;;;10.52;2.92;;;;;;;;;;4888862;29;20021;-73
2023/06/14 06:45:46;;;;;;;8.90;3.60;;;;;;;;;;4887778;29;20039;-74
2023/06/14 06:48:12;;;;;;;7.80;3.22;;;563.30;2432.00;;;;;;4886650;29;20431;-71
2023/06/14 06:50:38;;;;;;;9.70;3.25;;;563.20;2432.00;;;;;;4878513;29;20029;-75
2023/06/14 06:53:04;;;;;;;5.78;3.10;;;563.30;2432.00;;;;;;4905575;29;20047;-78
2023/06/14 06:55:30;;;;;;;5.63;2.97;;;563.40;2432.00;;;;;;4889165;29;20479;-70
2023/06/14 06:57:56;;;;;;;4.72;2.85;;;563.40;2432.00;;;;;;4881220;29;20049;-73
2023/06/14 07:00:22;;;;;;;5.53;3.22;;;563.50;2432.00;;;;;;4889924;29;20489;-72
2023/06/14 07:02:47;;;;;;;7.50;2.85;;;563.60;2406.40;;;;;;4887759;29;20029;-70
2023/06/14 07:05:13;;;;;;;6.75;3.00;;;563.70;2304.00;;;;;;4885975;29;20021;-73
2023/06/14 07:07:39;;;;;;;6.03;3.35;;;563.90;2227.20;;;;;;4889375;29;20039;-71
2023/06/14 07:10:05;;;;;;;6.70;2.67;;;564.10;2278.40;;;;;;4885587;29;20526;-70
2023/06/14 07:12:33;;;;;;;5.80;3.55;;;564.10;2099.20;;;;;;4885286;29;20032;-71
2023/06/14 07:14:59;;;;;;;6.93;3.20;;;588.80;2150.40;;;;;;4887263;29;20073;-74
2023/06/14 07:17:25;;;;;;;8.00;3.15;;;588.90;2048.00;;;;;;4889981;29;20064;-71
2023/06/14 07:19:51;;;;;;;5.00;3.00;;;588.90;2176.00;;;;;;4891952;29;20558;-74
2023/06/14 07:22:17;;;;;;;5.38;2.97;;;588.90;2022.40;;;;;;4887915;29;20073;-71
2023/06/14 07:24:43;;;;;;;6.78;3.20;;;588.90;2048.00;;;;;;4891747;29;20028;-70
2023/06/14 07:27:09;;;;;;;8.07;3.13;;;589.10;2099.20;;;;;;4885930;29;20275;-70
2023/06/14 07:29:35;;;;;;;5.60;3.08;;;589.30;2124.80;;;;;;4887012;29;20437;-71
2023/06/14 07:32:01;;;;;;;4.43;2.80;;;589.40;2073.60;;;;;;4890168;29;20024;-71
2023/06/14 07:34:27;;;;;;;5.05;2.97;;;589.40;1920.00;;;;;;4880772;29;20088;-72
2023/06/14 07:36:54;;;;;;;5.82;2.85;;;589.20;1817.60;;;;;;4884467;29;20400;-71
2023/06/14 07:39:19;;;;;;;6.47;2.92;;;589.40;1894.40;;;;;;4883693;29;20100;-70
2023/06/14 07:41:45;;;;;;;5.32;2.65;;;589.60;1792.00;;;;;;4884615;29;20542;-70
2023/06/14 07:44:12;;;;;;;6.40;2.75;;;589.70;1843.20;;;;;;4891957;29;20087;-71
2023/06/14 07:46:38;;;;;;;6.82;2.60;;;614.40;1664.00;;;;;;4887902;29;20071;-71
2023/06/14 07:49:03;;;;;;;5.15;2.63;;;614.50;1689.60;;;;;;4885235;29;20455;-74
2023/06/14 07:51:29;;;;;;;6.95;3.30;;;614.40;1638.40;;;;;;4880837;29;20165;-70
2023/06/14 07:53:56;;;;;;;5.45;2.78;;;589.70;1792.00;;;;;;4884364;29;20029;-71
2023/06/14 07:56:23;;;;;;;5.15;2.75;;;589.60;1792.00;;;;;;4885982;29;20394;-69
2023/06/14 07:58:48;;;;;;;11.27;2.55;;;589.70;1689.60;;;;;;4882314;29;20104;-70
2023/06/14 08:01:15;;;;;;;6.70;2.70;;;589.70;1612.80;;;;;;4889110;29;20124;-72
2023/06/14 08:03:40;;;;;;;6.45;2.58;;;614.40;1612.80;;;;;;4894914;29;20044;-71
2023/06/14 08:06:07;;;;;;;5.90;2.50;;;614.60;1612.80;;;;;;4884560;29;20108;-75
2023/06/14 08:08:33;;;;;;;8.90;3.03;;;614.70;1536.00;;;;;;4890667;29;20025;-76
2023/06/14 08:10:58;;;;;;;3.38;2.17;;;614.90;1536.00;;;;;;4891672;29;20048;-75
2023/06/14 08:13:24;;;;;;;5.78;2.67;;;614.80;1459.20;;;;;;4890588;29;20025;-72
2023/06/14 08:15:50;;;;;;;6.28;2.33;;;614.90;1561.60;;;;;;4884718;29;20061;-73
2023/06/14 08:18:16;;;;;;;5.80;2.55;;;615.00;1433.60;;;;;;4892761;29;20081;-73
2023/06/14 08:20:41;;;;;;;3.70;2.17;;;615.30;1305.60;;;;;;4885081;29;20032;-72
2023/06/14 08:23:08;;;;;;;5.20;2.15;;;615.20;1305.60;;;;;;4887756;29;20507;-73
2023/06/14 08:25:35;;;;;;;6.10;2.13;;;615.20;1382.40;;;;;;4890860;29;20033;-74
2023/06/14 08:28:00;;;;;;;4.32;2.30;;;615.10;1408.00;;;;;;4888696;29;20029;-73
2023/06/14 08:30:27;;;;;;;3.78;2.13;;;615.10;1382.40;;;;;;4892520;29;20105;-74
2023/06/14 08:32:55;;;;;;;4.68;2.42;;;615.10;1356.80;;;;;;4890661;29;20020;-72
2023/06/14 08:35:21;;;;;;;41.97;6.07;;;615.00;1408.00;;;;;;4897120;29;20048;-75
2023/06/14 08:37:47;;;;;;;6.55;2.80;;;614.90;1536.00;;;;;;4889295;29;20033;-75
2023/06/14 08:40:23;;;;;;;5.95;2.67;;;614.90;1484.80;;;;;;4883643;29;20036;-72
2023/06/14 08:42:53;;;;;;;4.55;2.60;;;615.10;1408.00;;;;;;4884806;29;20022;-74
2023/06/14 08:45:21;;;;;;;5.07;2.40;;;615.10;1433.60;;;;;;4889824;29;20210;-75
2023/06/14 08:47:51;;;;;;;7.03;2.80;;;615.20;1433.60;;;;;;4893445;29;20028;-73
2023/06/14 08:50:22;;;;;;;5.78;2.53;;;615.20;1459.20;;;;;;4883866;29;20040;-73
2023/06/14 08:52:53;;;;;;;4.22;2.40;;;615.20;1356.80;;;;;;4881614;29;20036;-72
2023/06/14 08:55:20;;;;;;;3.95;2.58;;;615.20;1356.80;;;;;;4897489;29;20052;-72
2023/06/14 08:57:47;;;;;;;5.57;2.65;;;615.20;1356.80;;;;;;4893844;29;20033;-75
2023/06/14 09:00:14;;;;;;;7.22;3.63;;;615.20;1382.40;;;;;;4890897;29;20104;-74
2023/06/14 09:02:46;;;;;;;7.35;2.88;;;615.20;1459.20;;;;;;4890635;29;20041;-72
2023/06/14 09:05:13;;;;;;;9.45;2.60;;;615.20;1484.80;;;;;;4890597;29;20020;-72
2023/06/14 09:07:41;;;;;;;10.65;2.58;;;615.20;1382.40;;;;;;4893548;29;20032;-73
2023/06/14 09:10:09;;;;;;;4.82;2.45;;;640.00;1433.60;;;;;;4886821;29;20049;-75
2023/06/14 09:12:35;;;;;;;6.22;3.13;;;640.00;1382.40;;;;;;4887236;29;20088;-73
2023/06/14 09:15:05;;;;;;;5.30;4.80;;;640.10;1382.40;;;;;;4893967;29;20055;-72
2023/06/14 09:17:32;;;;;;;4.05;2.55;;;640.10;1408.00;;;;;;4886583;29;20036;-73
2023/06/14 09:19:59;;;;;;;5.00;2.60;;;640.00;1459.20;;;;;;4883545;29;20491;-72
2023/06/14 09:22:24;;;;;;;7.93;2.72;;;640.20;1433.60;;;;;;4893992;29;20040;-72
2023/06/14 09:24:50;;;;;;;5.70;2.60;;;640.10;1433.60;;;;;;4893558;29;20025;-71
2023/06/14 09:27:16;;;;;;;5.93;2.53;;;640.10;1408.00;;;;;;4885736;29;20132;-73
2023/06/14 09:29:42;;;;;;;3.80;2.42;;;640.10;1382.40;;;;;;4885269;29;20025;-72
2023/06/14 09:32:09;;;;;;;7.13;2.97;;;615.20;1433.60;;;;;;4889682;29;20551;-77
2023/06/14 09:34:35;;;;;;;11.68;3.17;;;615.10;1459.20;;;;;;4883280;29;20023;-76
2023/06/14 09:37:01;;;;;;;4.13;3.00;;;615.10;1408.00;;;;;;4891589;29;20035;-74
2023/06/14 09:39:27;;;;;;;3.97;2.50;;;615.20;1484.80;;;;;;4888829;29;20028;-73
2023/06/14 09:41:52;;;;;;;4.15;2.35;;;640.00;1382.40;;;;;;4888666;29;20047;-72
2023/06/14 09:44:20;;;;;;;5.93;2.90;;;640.00;1459.20;;;;;;4888841;29;20391;-72
2023/06/14 09:46:47;;;;;;;5.85;2.90;;;640.10;1382.40;;;;;;4889507;29;20033;-71
2023/06/14 09:49:12;;;;;;;6.63;3.28;;;640.40;1382.40;;;;;;4882499;29;20056;-72
2023/06/14 09:51:49;;;;;;;4.85;2.38;;;640.40;1433.60;;;;;;4891768;29;20032;-75
2023/06/14 09:54:16;;;;;;;5.15;2.65;;;640.10;1408.00;;;;;;4893174;29;20405;-73
2023/06/14 09:56:45;;;;;;;9.20;3.67;;;640.30;1382.40;;;;;;4890648;29;20077;-75
2023/06/14 09:59:12;;;;;;;4.03;2.58;;;640.50;1382.40;;;;;;4891404;29;20080;-72
2023/06/14 10:01:43;;;;;;;6.18;2.92;;;640.50;1408.00;;;;;;4890479;29;20036;-71
2023/06/14 10:04:10;;;;;;;5.75;2.55;;;640.50;1433.60;;;;;;4891873;29;20029;-76
2023/06/14 10:06:45;;;;;;;4.28;2.95;;;640.50;1382.40;;;;;;4886772;29;20033;-72
2023/06/14 10:09:11;;;;;;;5.18;2.63;;;640.80;1331.20;;;;;;4885884;29;20036;-74
2023/06/14 10:11:43;;;;;;;7.25;3.38;;;665.60;1408.00;;;;;;4891412;29;20029;-71
2023/06/14 10:14:11;;;;;;;4.70;2.65;;;665.80;1331.20;;;;;;4887363;29;20079;-73
2023/06/14 10:16:56;;;;;;;11.80;3.00;;;666.00;1305.60;;;;;;4887807;29;20068;-72
2023/06/14 10:19:34;;;;;;;5.57;3.08;;;666.10;1331.20;;;;;;4886985;29;20111;-74
2023/06/14 10:22:17;;;;;;;3.30;2.33;;;666.20;1356.80;;;;;;4888562;29;20112;-73
2023/06/14 10:24:44;;;;;;;6.68;3.50;;;666.20;1254.40;;;;;;4885744;29;20129;-72
2023/06/14 10:27:13;;;;;;;3.63;2.45;;;666.00;1356.80;;;;;;4888741;29;20029;-73
2023/06/14 10:29:55;;;;;;;6.18;2.70;;;665.90;1408.00;;;;;;4889738;29;20099;-73
2023/06/14 10:32:23;;;;;;;6.18;2.92;;;666.20;1408.00;;;;;;4886000;29;20109;-74
2023/06/14 10:35:01;;;;;;;5.32;2.72;;;666.30;1356.80;;;;;;4887620;29;20036;-72
2023/06/14 10:37:27;;;;;;;7.43;2.80;;;666.30;1305.60;;;;;;4889740;29;20029;-72
2023/06/14 10:39:53;;;;;;;4.60;2.85;;;666.40;1382.40;;;;;;4882415;29;20040;-73
2023/06/14 10:42:19;;;;;;;8.02;2.72;;;666.50;1382.40;;;;;;4865851;29;20048;-74
2023/06/14 10:44:46;;;;;;;6.38;2.70;;;666.30;1408.00;;;;;;4888788;29;20033;-78
2023/06/14 10:47:29;;;;;;;4.13;2.80;;;666.30;1433.60;;;;;;4891356;29;20052;-75
2023/06/14 10:50:06;;;;;;;4.18;2.67;;;691.20;1356.80;;;;;;4887560;29;20033;-75
2023/06/14 10:52:41;;;;;;;5.97;3.22;;;691.30;1305.60;;;;;;4888741;29;20025;-73
2023/06/14 10:55:18;;;;;;;4.77;2.93;;;691.30;1356.80;;;;;;4898108;29;20080;-73
2023/06/14 10:57:51;;;;;;;6.88;3.00;;;691.40;1305.60;;;;;;4883948;29;20032;-73
2023/06/14 11:00:22;;;;;;;6.63;2.95;;;691.30;1356.80;;;;;;4883342;29;20108;-73
2023/06/14 11:03:16;;;;;;;8.20;2.70;;;691.40;1356.80;;;;;;4890991;29;20035;-72
2023/06/14 11:05:52;;;;;;;8.05;3.17;;;691.30;1280.00;;;;;;4885649;29;20383;-75
2023/06/14 11:08:55;;;;;;;4.53;2.58;;;691.40;1356.80;;;;;;4885994;29;20025;-73
2023/06/14 11:11:25;;;;;;;5.97;2.97;;;691.20;1254.40;;;;;;4888052;29;20088;-74
2023/06/14 11:13:51;;;;;;;6.15;3.05;;;691.30;1305.60;;;;;;4885661;29;20033;-73
2023/06/14 11:16:21;;;;;;;3.63;2.38;;;691.50;1356.80;;;;;;4882898;29;20164;-73
2023/06/14 11:18:47;;;;;;;7.30;3.15;;;691.60;1331.20;;;;;;4890967;29;20084;-72
2023/06/14 11:21:18;;;;;;;4.63;2.80;;;691.60;1356.80;;;;;;4881860;29;20108;-70
2023/06/14 11:23:50;;;;;;;4.72;3.00;;;691.70;1331.20;;;;;;4884072;29;20464;-74
2023/06/14 11:26:23;;;;;;;7.78;3.00;;;691.60;1280.00;;;;;;4885557;29;20048;-73
2023/06/14 11:28:56;;;;;;;6.57;2.78;;;691.30;1280.00;;;;;;4885462;29;20379;-72
2023/06/14 11:31:22;;;;;;;7.45;3.00;;;666.50;1356.80;;;;;;4889680;29;20021;-73
2023/06/14 11:33:51;;;;;;;6.10;2.97;;;691.30;1356.80;;;;;;4891649;29;20423;-72
2023/06/14 11:36:16;;;;;;;5.03;2.70;;;691.70;1305.60;;;;;;4892117;29;20495;-74
2023/06/14 11:38:42;;;;;;;5.40;3.05;;;691.90;1305.60;;;;;;4888964;29;20063;-73
2023/06/14 11:41:08;;;;;;;4.70;2.88;;;692.00;1331.20;;;;;;4885358;29;20053;-71
2023/06/14 11:43:35;;;;;;;7.07;2.88;;;691.60;1331.20;;;;;;4889324;29;20379;-73
2023/06/14 11:46:01;;;;;;;3.90;2.38;;;691.70;1305.60;;;;;;4892034;29;20033;-75
2023/06/14 11:48:42;;;;;;;6.43;2.92;;;691.60;1280.00;;;;;;4891410;29;20491;-72
2023/06/14 11:51:08;;;;;;;7.22;3.28;;;691.60;1305.60;;;;;;4895116;29;20116;-71
2023/06/14 11:53:35;;;;;;;6.50;3.00;;;691.40;1331.20;;;;;;4896489;29;20531;-72
2023/06/14 11:56:01;;;;;;;6.43;2.83;;;691.60;1331.20;;;;;;4892803;29;20043;-74
2023/06/14 11:58:28;;;;;;;5.55;3.38;;;691.80;1331.20;;;;;;4884070;29;20024;-72
2023/06/14 12:00:55;;;;;;;5.55;3.15;;;691.90;1331.20;;;;;;4884179;29;20040;-76
2023/06/14 12:03:28;;;;;;;11.45;3.00;;;691.70;1305.60;;;;;;4892618;29;20033;-71
2023/06/14 12:06:07;;;;;;;5.63;2.85;;;691.80;1408.00;;;;;;4883727;29;20024;-72
2023/06/14 12:08:40;;;;;;;5.45;2.80;;;691.90;1280.00;;;;;;4887289;29;20080;-72
2023/06/14 12:11:13;;;;;;;8.20;3.25;;;691.70;1331.20;;;;;;4884725;29;20029;-74
2023/06/14 12:13:42;;;;;;;5.05;2.97;;;691.60;1408.00;;;;;;4889345;29;20072;-71
2023/06/14 12:16:10;;;;;;;6.07;3.63;;;691.60;1382.40;;;;;;4895680;29;20056;-74
2023/06/14 12:18:37;;;;;;;5.80;3.15;;;691.40;1382.40;;;;;;4893340;29;20029;-75
2023/06/14 12:21:06;;;;;;;6.30;3.22;;;691.20;1382.40;;;;;;4890868;29;20387;-80